createdAt,value
2022-11-28T00:03:34.326Z,97605.80
2022-11-28T00:13:39.607Z,97604.52
2022-11-28T00:23:46.112Z,97602.55
2022-11-28T00:33:49.837Z,97601.88
2022-11-28T00:43:56.271Z,97606.23
2022-11-28T00:54:02.637Z,97616.20
2022-11-28T01:04:08.840Z,97607.58
2022-11-28T01:14:13.603Z,97607.86
2022-11-28T01:24:18.184Z,97593.98
2022-11-28T01:34:21.877Z,97578.67
2022-11-28T01:44:25.441Z,97574.65
2022-11-28T01:54:30.796Z,97563.94
2022-11-28T02:04:34.986Z,97550.73
2022-11-28T02:14:57.387Z,97536.31
2022-11-28T02:25:19.952Z,97517.00
2022-11-28T02:35:35.468Z,97511.29
2022-11-28T02:46:03.149Z,97510.87
2022-11-28T02:56:10.232Z,97508.74
2022-11-28T03:06:27.866Z,97497.09
2022-11-28T03:16:39.216Z,97486.86
2022-11-28T03:26:56.083Z,97479.68
2022-11-28T03:37:17.117Z,97479.06
2022-11-28T03:47:25.351Z,97472.80
2022-11-28T03:57:39.820Z,97466.20
2022-11-28T04:08:06.655Z,97458.06
2022-11-28T04:18:43.739Z,97447.14
2022-11-28T04:28:50.323Z,97443.71
2022-11-28T04:38:56.809Z,97443.59
2022-11-28T04:49:01.482Z,97436.02
2022-11-28T04:59:07.771Z,97436.77
2022-11-28T05:09:13.007Z,97435.44
2022-11-28T05:19:17.597Z,97432.55
2022-11-28T05:29:21.368Z,97431.11
2022-11-28T05:39:26.378Z,97431.48
2022-11-28T05:49:30.021Z,97426.35
2022-11-28T05:59:34.206Z,97427.23
2022-11-28T06:09:37.861Z,97425.35
2022-11-28T06:19:43.074Z,97422.16
2022-11-28T06:29:47.359Z,97425.41
2022-11-28T06:39:51.837Z,97427.52
2022-11-28T06:49:56.412Z,97429.98
2022-11-28T07:00:00.112Z,97429.35
2022-11-28T07:10:05.536Z,97424.72
2022-11-28T07:20:10.277Z,97424.58
2022-11-28T07:30:14.761Z,97421.77
2022-11-28T07:40:20.198Z,97421.19
2022-11-28T07:50:24.641Z,97418.71
2022-11-28T08:00:28.858Z,97418.70
2022-11-28T08:10:32.742Z,97415.42
2022-11-28T08:20:36.979Z,97413.40
2022-11-28T08:30:40.682Z,97414.87
2022-11-28T08:40:44.432Z,97419.84
2022-11-28T08:50:49.278Z,97415.02
2022-11-28T09:00:53.188Z,97408.89
2022-11-28T09:10:56.788Z,97393.77
2022-11-28T09:21:09.585Z,97377.86
2022-11-28T09:31:15.188Z,97354.16
2022-11-28T09:41:54.174Z,97347.23
2022-11-28T09:52:05.236Z,97340.93
2022-11-28T10:02:24.527Z,97325.59
2022-11-28T10:12:50.090Z,97318.34
2022-11-28T10:22:58.667Z,97311.50
2022-11-28T10:33:19.998Z,97307.06
2022-11-28T10:43:39.053Z,97299.55
2022-11-28T10:54:01.239Z,97292.81
2022-11-28T11:04:06.840Z,97275.64
2022-11-28T11:14:12.718Z,97263.35
2022-11-28T11:24:18.898Z,97258.06
2022-11-28T11:34:24.807Z,97255.91
2022-11-28T11:44:36.372Z,97254.70
2022-11-28T11:54:53.013Z,97248.85
2022-11-28T12:05:12.767Z,97245.95
2022-11-28T12:15:40.510Z,97236.90
2022-11-28T12:26:29.789Z,97229.71
2022-11-28T12:36:58.111Z,97224.95
2022-11-28T12:47:29.037Z,97221.52
2022-11-28T12:57:47.475Z,97221.63
2022-11-28T13:08:19.382Z,97212.76
2022-11-28T13:18:38.008Z,97206.40
2022-11-28T13:28:57.011Z,97210.41
2022-11-28T13:39:13.589Z,97208.08
2022-11-28T13:49:25.930Z,97205.30
2022-11-28T13:59:30.655Z,97206.39
2022-11-28T14:09:52.248Z,97206.08
2022-11-28T14:20:06.279Z,97200.73
2022-11-28T14:30:35.697Z,97202.50
2022-11-28T14:40:57.738Z,97195.45
2022-11-28T14:51:02.650Z,97198.85
2022-11-28T15:01:13.641Z,97199.25
2022-11-28T15:11:47.142Z,97201.06
2022-11-28T15:21:52.917Z,97201.01
2022-11-28T15:31:58.653Z,97201.77
2022-11-28T15:42:04.705Z,97202.70
2022-11-28T15:52:18.698Z,97199.95
2022-11-28T16:02:34.267Z,97200.70
2022-11-28T16:12:42.083Z,97200.13
2022-11-28T16:22:46.318Z,97203.05
2022-11-28T16:32:53.120Z,97202.47
2022-11-28T16:42:59.316Z,97205.13
2022-11-28T16:53:04.810Z,97209.27
2022-11-28T17:03:40.139Z,97217.11
2022-11-28T17:13:44.738Z,97219.80
2022-11-28T17:23:50.499Z,97220.31
2022-11-28T17:33:55.021Z,97226.33
2022-11-28T17:44:00.251Z,97232.87
2022-11-28T17:54:05.810Z,97232.20
2022-11-28T18:04:11.867Z,97234.07
2022-11-28T18:14:19.628Z,97227.02
2022-11-28T18:24:24.956Z,97226.36
2022-11-28T18:34:30.984Z,97221.04
2022-11-28T18:44:38.710Z,97225.88
2022-11-28T18:54:43.905Z,97226.96
2022-11-28T19:04:52.136Z,97229.90
2022-11-28T19:15:02.127Z,97233.81
2022-11-28T19:25:09.772Z,97237.73
2022-11-28T19:35:15.344Z,97235.33
2022-11-28T19:45:23.225Z,97239.35
2022-11-28T19:55:29.727Z,97240.20
2022-11-28T20:05:39.916Z,97242.10
2022-11-28T20:15:45.560Z,97246.21
2022-11-28T20:25:52.697Z,97238.77
2022-11-28T20:36:07.914Z,97244.18
2022-11-28T20:46:17.217Z,97254.55
2022-11-28T20:56:23.996Z,97257.61
2022-11-28T21:06:29.354Z,97261.30
2022-11-28T21:16:38.412Z,97266.14
2022-11-28T21:26:48.172Z,97267.39
2022-11-28T21:36:54.693Z,97270.05
2022-11-28T21:46:58.657Z,97264.59
2022-11-28T21:57:02.521Z,97272.94
2022-11-28T22:07:07.919Z,97276.52
2022-11-28T22:17:12.109Z,97280.41
2022-11-28T22:27:16.892Z,97275.56
2022-11-28T22:37:21.270Z,97278.70
2022-11-28T22:47:25.798Z,97277.43
2022-11-28T22:57:30.593Z,97276.80
2022-11-28T23:07:34.630Z,97274.59
2022-11-28T23:17:39.122Z,97277.67
2022-11-28T23:27:43.286Z,97275.87
2022-11-28T23:37:47.402Z,97270.77
2022-11-28T23:47:51.302Z,97268.08
2022-11-28T23:57:55.199Z,97265.11
